createdAt,value
2023-05-17T00:00:24.172Z,6.20
2023-05-17T00:02:53.277Z,6.10
2023-05-17T00:05:22.394Z,6.10
2023-05-17T00:07:51.511Z,6.20
2023-05-17T00:10:20.205Z,6.10
2023-05-17T00:12:48.603Z,6.10
2023-05-17T00:15:17.441Z,6.10
2023-05-17T00:17:47.337Z,6.10
2023-05-17T00:20:15.850Z,6.10
2023-05-17T00:22:46.080Z,6.00
2023-05-17T00:25:14.785Z,6.00
2023-05-17T00:27:43.217Z,5.90
2023-05-17T00:30:12.980Z,5.80
2023-05-17T00:32:41.645Z,5.80
2023-05-17T00:35:11.645Z,5.70
2023-05-17T00:37:40.148Z,5.70
2023-05-17T00:40:09.779Z,5.70
2023-05-17T00:42:38.202Z,5.60
2023-05-17T00:45:08.225Z,5.60
2023-05-17T00:47:36.892Z,5.60
2023-05-17T00:50:06.344Z,5.50
2023-05-17T00:52:36.974Z,5.50
2023-05-17T00:55:06.075Z,5.50
2023-05-17T00:57:34.728Z,5.50
2023-05-17T01:00:04.668Z,5.50
2023-05-17T01:02:34.508Z,5.40
2023-05-17T01:05:03.613Z,5.40
2023-05-17T01:07:33.015Z,5.40
2023-05-17T01:10:02.963Z,5.40
2023-05-17T01:12:43.376Z,5.40
2023-05-17T01:15:16.310Z,5.30
2023-05-17T01:17:55.411Z,5.30
2023-05-17T01:20:29.975Z,5.30
2023-05-17T01:23:11.394Z,5.30
2023-05-17T01:25:56.166Z,5.20
2023-05-17T01:28:28.794Z,5.20
2023-05-17T01:30:58.732Z,5.20
2023-05-17T01:33:27.795Z,5.20
2023-05-17T01:35:56.441Z,5.30
2023-05-17T01:38:25.019Z,5.30
2023-05-17T01:40:59.817Z,5.40
2023-05-17T01:43:40.943Z,5.40
2023-05-17T01:46:17.373Z,5.40
2023-05-17T01:48:51.113Z,5.50
2023-05-17T01:51:21.324Z,5.50
2023-05-17T01:53:58.353Z,5.50
2023-05-17T01:56:30.752Z,5.50
2023-05-17T01:59:04.600Z,5.50
2023-05-17T02:01:34.694Z,5.50
2023-05-17T02:04:03.714Z,5.50
2023-05-17T02:06:33.748Z,5.50
2023-05-17T02:09:03.190Z,5.50
2023-05-17T02:11:32.384Z,5.50
2023-05-17T02:14:02.429Z,5.60
2023-05-17T02:16:31.041Z,5.60
2023-05-17T02:18:59.618Z,5.60
2023-05-17T02:21:28.245Z,5.60
2023-05-17T02:23:57.782Z,5.60
2023-05-17T02:26:26.328Z,5.60
2023-05-17T02:28:54.967Z,5.70
2023-05-17T02:31:26.910Z,5.70
2023-05-17T02:33:55.735Z,5.70
2023-05-17T02:36:24.855Z,5.80
2023-05-17T02:38:54.417Z,5.80
2023-05-17T02:41:23.273Z,5.80
2023-05-17T02:43:52.672Z,5.90
2023-05-17T02:46:21.808Z,5.90
2023-05-17T02:48:51.822Z,5.90
2023-05-17T02:51:20.368Z,5.90
2023-05-17T02:53:49.061Z,6.00
2023-05-17T02:56:17.872Z,6.00
2023-05-17T02:58:46.609Z,6.00
2023-05-17T03:01:15.526Z,6.00
2023-05-17T03:03:44.657Z,6.10
2023-05-17T03:06:14.887Z,6.10
2023-05-17T03:08:43.544Z,6.20
2023-05-17T03:11:12.065Z,6.30
2023-05-17T03:13:43.075Z,6.30
2023-05-17T03:16:12.501Z,6.30
2023-05-17T03:18:41.262Z,6.30
2023-05-17T03:21:09.939Z,6.30
2023-05-17T03:23:39.794Z,6.20
2023-05-17T03:26:08.931Z,6.20
2023-05-17T03:28:44.230Z,6.20
2023-05-17T03:31:14.156Z,6.20
2023-05-17T03:33:43.059Z,6.30
2023-05-17T03:36:11.804Z,6.20
2023-05-17T03:38:41.715Z,6.30
2023-05-17T03:41:10.445Z,6.20
2023-05-17T03:43:39.709Z,6.20
2023-05-17T03:46:09.099Z,6.30
2023-05-17T03:48:37.964Z,6.20
2023-05-17T03:51:07.686Z,6.20
2023-05-17T03:53:41.170Z,6.20
2023-05-17T03:56:11.217Z,6.20
2023-05-17T03:58:39.966Z,6.20
2023-05-17T04:01:09.046Z,6.20
2023-05-17T04:03:38.103Z,6.30
2023-05-17T04:06:08.377Z,6.30
2023-05-17T04:08:38.937Z,6.30
2023-05-17T04:11:13.136Z,6.30
2023-05-17T04:13:44.091Z,6.30
2023-05-17T04:16:12.829Z,6.30
2023-05-17T04:18:43.529Z,6.30
2023-05-17T04:21:13.941Z,6.40
2023-05-17T04:23:42.695Z,6.40
2023-05-17T04:26:11.697Z,6.40
2023-05-17T04:28:41.421Z,6.40
2023-05-17T04:31:12.325Z,6.40
2023-05-17T04:33:40.948Z,6.50
2023-05-17T04:36:10.851Z,6.50
2023-05-17T04:38:40.786Z,6.60
2023-05-17T04:41:11.428Z,6.60
2023-05-17T04:43:42.139Z,6.70
2023-05-17T04:46:18.426Z,6.80
2023-05-17T04:48:47.320Z,6.80
2023-05-17T04:51:16.597Z,6.90
2023-05-17T04:53:45.529Z,6.90
2023-05-17T04:56:19.226Z,7.00
2023-05-17T04:58:48.238Z,7.10
2023-05-17T05:01:18.525Z,7.20
2023-05-17T05:03:47.138Z,7.30
2023-05-17T05:06:16.332Z,7.40
2023-05-17T05:08:45.619Z,7.50
2023-05-17T05:11:15.041Z,7.60
2023-05-17T05:13:43.718Z,7.80
2023-05-17T05:16:12.464Z,7.90
2023-05-17T05:18:42.512Z,8.00
2023-05-17T05:21:11.043Z,8.10
2023-05-17T05:23:40.015Z,8.30
2023-05-17T05:26:08.549Z,8.40
2023-05-17T05:28:37.418Z,8.50
2023-05-17T05:31:06.297Z,8.60
2023-05-17T05:33:44.498Z,8.80
2023-05-17T05:36:13.199Z,8.90
2023-05-17T05:38:42.667Z,9.00
2023-05-17T05:41:12.025Z,9.00
2023-05-17T05:43:40.518Z,9.10
2023-05-17T05:46:09.616Z,9.20
2023-05-17T05:48:41.816Z,9.30
2023-05-17T05:51:11.982Z,9.40
2023-05-17T05:53:43.475Z,9.50
2023-05-17T05:56:12.164Z,9.60
2023-05-17T05:58:40.887Z,9.60
2023-05-17T06:01:10.835Z,9.60
2023-05-17T06:03:39.511Z,9.60
2023-05-17T06:06:08.263Z,9.60
2023-05-17T06:08:40.284Z,9.70
2023-05-17T06:11:08.890Z,9.70
2023-05-17T06:13:37.597Z,9.80
2023-05-17T06:16:07.043Z,9.90
2023-05-17T06:18:35.669Z,9.90
2023-05-17T06:21:04.648Z,10.00
2023-05-17T06:23:33.694Z,10.10
2023-05-17T06:26:04.084Z,10.20
2023-05-17T06:28:32.945Z,10.20
2023-05-17T06:31:01.834Z,10.30
2023-05-17T06:33:30.582Z,10.40
2023-05-17T06:35:59.399Z,10.60
2023-05-17T06:38:29.337Z,10.70
2023-05-17T06:41:01.578Z,10.90
2023-05-17T06:43:31.520Z,11.10
2023-05-17T06:46:00.151Z,11.40
2023-05-17T06:48:28.825Z,11.60
2023-05-17T06:50:58.324Z,11.80
2023-05-17T06:53:27.366Z,11.90
2023-05-17T06:55:55.902Z,12.00
2023-05-17T06:58:24.458Z,12.10
2023-05-17T07:00:54.565Z,12.20
2023-05-17T07:03:25.914Z,12.30
2023-05-17T07:05:54.575Z,12.30
2023-05-17T07:08:23.069Z,12.40
2023-05-17T07:10:55.859Z,12.50
2023-05-17T07:13:24.405Z,12.50
2023-05-17T07:15:54.429Z,12.50
2023-05-17T07:18:23.088Z,12.50
2023-05-17T07:20:51.639Z,12.60
2023-05-17T07:23:20.252Z,12.70
2023-05-17T07:25:48.889Z,12.80
2023-05-17T07:28:17.435Z,13.00
2023-05-17T07:30:45.970Z,13.20
2023-05-17T07:33:15.983Z,13.30
2023-05-17T07:35:45.552Z,13.40
2023-05-17T07:38:14.027Z,13.50
2023-05-17T07:40:42.522Z,13.50
2023-05-17T07:43:11.070Z,13.50
2023-05-17T07:45:39.812Z,13.50
2023-05-17T07:48:08.474Z,13.40
2023-05-17T07:50:38.460Z,13.30
2023-05-17T07:53:09.524Z,13.30
2023-05-17T07:55:38.195Z,13.30
2023-05-17T07:58:09.235Z,13.20
2023-05-17T08:00:38.116Z,13.20
2023-05-17T08:03:09.460Z,13.20
2023-05-17T08:05:39.603Z,13.30
2023-05-17T08:08:08.420Z,13.30
2023-05-17T08:10:37.962Z,13.30
2023-05-17T08:13:07.539Z,13.30
2023-05-17T08:15:36.202Z,13.40
2023-05-17T08:18:07.489Z,13.40
2023-05-17T08:20:36.124Z,13.50
2023-05-17T08:23:06.005Z,13.60
2023-05-17T08:25:34.655Z,13.50
2023-05-17T08:28:03.845Z,13.60
2023-05-17T08:30:32.830Z,13.70
2023-05-17T08:33:02.018Z,13.70
2023-05-17T08:35:31.601Z,13.70
2023-05-17T08:38:00.286Z,13.80
2023-05-17T08:40:31.076Z,13.90
2023-05-17T08:43:00.245Z,14.00
2023-05-17T08:45:30.616Z,14.00
2023-05-17T08:48:01.658Z,14.10
2023-05-17T08:50:32.221Z,14.20
2023-05-17T08:53:01.092Z,14.30
2023-05-17T08:55:33.247Z,14.30
2023-05-17T08:58:02.378Z,14.40
2023-05-17T09:00:32.772Z,14.50
2023-05-17T09:03:01.714Z,14.60
2023-05-17T09:05:30.327Z,14.80
2023-05-17T09:08:00.906Z,15.00
2023-05-17T09:10:31.811Z,15.10
2023-05-17T09:13:01.551Z,15.40
2023-05-17T09:15:31.104Z,15.60
2023-05-17T09:18:00.153Z,15.70
2023-05-17T09:20:34.549Z,15.90
2023-05-17T09:23:04.125Z,16.20
2023-05-17T09:25:34.708Z,16.30
2023-05-17T09:28:04.255Z,16.40
2023-05-17T09:30:34.715Z,16.40
2023-05-17T09:33:08.074Z,16.40
2023-05-17T09:35:37.591Z,16.50
2023-05-17T09:38:08.646Z,16.60
2023-05-17T09:40:41.511Z,16.70
2023-05-17T09:43:10.689Z,16.90
2023-05-17T09:45:39.759Z,17.10
2023-05-17T09:48:16.366Z,17.00
2023-05-17T09:50:47.047Z,16.90
2023-05-17T09:53:27.740Z,17.00
2023-05-17T09:56:00.609Z,17.10
2023-05-17T09:58:29.935Z,17.30
2023-05-17T10:01:01.715Z,17.30
2023-05-17T10:03:33.404Z,17.30
2023-05-17T10:06:05.471Z,17.30
2023-05-17T10:08:34.917Z,17.30
2023-05-17T10:11:09.515Z,17.30
2023-05-17T10:13:41.940Z,17.40
2023-05-17T10:16:11.801Z,17.40
2023-05-17T10:18:42.057Z,17.40
2023-05-17T10:21:10.906Z,17.40
2023-05-17T10:23:40.225Z,17.40
2023-05-17T10:26:10.676Z,17.50
2023-05-17T10:28:39.181Z,17.60
2023-05-17T10:31:08.347Z,17.80
2023-05-17T10:33:38.167Z,17.90
2023-05-17T10:36:08.324Z,17.90
2023-05-17T10:38:42.337Z,17.80
2023-05-17T10:41:14.255Z,17.90
2023-05-17T10:43:44.496Z,18.00
2023-05-17T10:46:18.014Z,18.30
2023-05-17T10:48:49.439Z,18.60
2023-05-17T10:51:24.754Z,19.00
2023-05-17T10:54:06.568Z,19.10
2023-05-17T10:56:40.289Z,19.10
2023-05-17T10:59:19.907Z,18.90
2023-05-17T11:02:01.339Z,18.80
2023-05-17T11:04:36.434Z,18.90
2023-05-17T11:07:28.097Z,19.10
2023-05-17T11:10:06.133Z,19.30
2023-05-17T11:12:40.586Z,19.60
2023-05-17T11:15:10.927Z,20.00
2023-05-17T11:17:54.606Z,20.40
2023-05-17T11:20:35.588Z,20.80
2023-05-17T11:23:06.206Z,21.20
2023-05-17T11:25:36.988Z,21.50
2023-05-17T11:28:11.199Z,21.80
2023-05-17T11:30:51.342Z,21.90
2023-05-17T11:33:33.026Z,21.80
2023-05-17T11:36:07.052Z,21.80
2023-05-17T11:38:35.697Z,21.50
2023-05-17T11:43:53.470Z,21.10
2023-05-17T11:46:24.871Z,21.10
2023-05-17T11:48:54.606Z,21.00
2023-05-17T11:51:25.227Z,21.00
2023-05-17T11:53:56.222Z,21.10
2023-05-17T11:56:35.738Z,21.20
2023-05-17T11:59:12.669Z,21.20
2023-05-17T12:01:46.198Z,21.30
2023-05-17T12:04:15.219Z,21.30
2023-05-17T12:06:45.435Z,21.30
2023-05-17T12:09:17.812Z,21.40
2023-05-17T12:11:47.940Z,21.50
2023-05-17T12:14:21.907Z,21.60
2023-05-17T12:16:53.281Z,21.80
2023-05-17T12:19:23.636Z,22.00
2023-05-17T12:21:52.720Z,22.20
2023-05-17T12:24:21.600Z,22.40
2023-05-17T12:26:50.520Z,22.50
2023-05-17T12:29:23.371Z,22.70
2023-05-17T12:31:54.953Z,22.80
2023-05-17T12:34:23.792Z,22.90
2023-05-17T12:36:53.934Z,23.00
2023-05-17T12:39:24.575Z,23.00
2023-05-17T12:41:53.918Z,22.90
2023-05-17T12:44:24.307Z,22.90
2023-05-17T12:46:54.186Z,22.90
2023-05-17T12:49:23.303Z,22.80
2023-05-17T12:51:52.166Z,22.50
2023-05-17T12:54:28.370Z,22.30
2023-05-17T12:56:59.389Z,22.00
2023-05-17T12:59:29.974Z,21.80
2023-05-17T13:02:00.827Z,21.70
2023-05-17T13:04:34.636Z,21.60
2023-05-17T13:07:05.050Z,21.60
2023-05-17T13:09:35.002Z,21.60
2023-05-17T13:12:08.028Z,21.60
2023-05-17T13:14:41.914Z,21.50
2023-05-17T13:17:14.245Z,21.50
2023-05-17T13:19:43.809Z,21.50
2023-05-17T13:22:12.650Z,21.70
2023-05-17T13:24:41.556Z,21.80
2023-05-17T13:27:11.038Z,21.80
2023-05-17T13:29:42.272Z,21.70
2023-05-17T13:32:12.984Z,21.70
2023-05-17T13:34:42.554Z,21.60
2023-05-17T13:37:12.329Z,21.30
2023-05-17T13:39:42.180Z,21.00
2023-05-17T13:42:11.356Z,20.70
2023-05-17T13:44:42.101Z,20.40
2023-05-17T13:47:10.731Z,20.00
2023-05-17T13:49:39.385Z,19.90
2023-05-17T13:52:09.670Z,20.00
2023-05-17T13:54:39.170Z,20.10
2023-05-17T13:57:08.367Z,20.30
2023-05-17T13:59:37.284Z,20.60
2023-05-17T14:02:07.593Z,21.10
2023-05-17T14:04:36.354Z,21.80
2023-05-17T14:07:05.394Z,22.40
2023-05-17T14:09:34.936Z,22.60
2023-05-17T14:12:04.552Z,22.90
2023-05-17T14:14:33.111Z,23.10
2023-05-17T14:17:02.578Z,23.30
2023-05-17T14:19:32.794Z,23.30
2023-05-17T14:22:01.521Z,23.50
2023-05-17T14:24:31.162Z,23.70
2023-05-17T14:27:00.009Z,23.50
2023-05-17T14:29:30.197Z,23.50
2023-05-17T14:31:58.744Z,23.60
2023-05-17T14:34:27.618Z,23.80
2023-05-17T14:36:57.660Z,23.90
2023-05-17T14:39:27.306Z,24.20
2023-05-17T14:41:56.002Z,25.00
2023-05-17T14:44:24.954Z,26.10
2023-05-17T14:46:53.626Z,26.90
2023-05-17T14:49:22.278Z,27.50
2023-05-17T14:51:51.208Z,28.50
2023-05-17T14:54:21.511Z,29.40
2023-05-17T14:56:50.005Z,29.60
2023-05-17T14:59:18.602Z,29.50
2023-05-17T15:01:47.504Z,29.50
2023-05-17T15:04:16.349Z,29.60
2023-05-17T15:06:46.108Z,29.40
2023-05-17T15:09:17.753Z,29.60
2023-05-17T15:11:47.770Z,29.90
2023-05-17T15:14:21.404Z,29.80
2023-05-17T15:16:50.020Z,29.40
2023-05-17T15:19:18.624Z,28.60
2023-05-17T15:21:47.371Z,27.60
2023-05-17T15:24:17.836Z,26.90
2023-05-17T15:26:48.014Z,27.30
2023-05-17T15:29:16.512Z,28.20
2023-05-17T15:31:45.014Z,29.50
2023-05-17T15:34:13.564Z,30.70
2023-05-17T15:36:42.427Z,31.80
2023-05-17T15:39:11.094Z,32.40
2023-05-17T15:41:40.677Z,32.70
2023-05-17T15:44:10.801Z,32.50
2023-05-17T15:46:39.606Z,32.10
2023-05-17T15:49:11.143Z,32.10
2023-05-17T15:51:39.721Z,32.40
2023-05-17T15:54:08.203Z,32.90
2023-05-17T15:56:38.486Z,33.40
2023-05-17T15:59:07.792Z,33.70
2023-05-17T16:01:37.778Z,33.70
2023-05-17T16:04:06.766Z,33.60
2023-05-17T16:06:36.791Z,33.40
2023-05-17T16:09:05.916Z,33.10
2023-05-17T16:11:34.589Z,32.80
2023-05-17T16:14:03.153Z,32.90
2023-05-17T16:16:32.002Z,33.20
2023-05-17T16:19:01.870Z,33.70
2023-05-17T16:21:31.408Z,34.20
2023-05-17T16:24:00.004Z,34.70
2023-05-17T16:26:29.051Z,35.00
2023-05-17T16:28:58.750Z,35.20
2023-05-17T16:31:27.548Z,35.40
2023-05-17T16:33:56.559Z,35.40
2023-05-17T16:36:27.328Z,35.40
2023-05-17T16:38:55.989Z,35.20
2023-05-17T16:41:25.821Z,34.80
2023-05-17T16:43:54.444Z,34.60
2023-05-17T16:46:24.811Z,34.40
2023-05-17T16:48:55.519Z,34.40
2023-05-17T16:51:24.565Z,34.00
2023-05-17T16:53:55.592Z,33.40
2023-05-17T16:56:24.417Z,33.00
2023-05-17T16:58:53.362Z,32.90
2023-05-17T17:01:22.077Z,33.00
2023-05-17T17:03:51.054Z,32.70
2023-05-17T17:06:19.464Z,32.60
2023-05-17T17:08:48.221Z,32.50
2023-05-17T17:11:21.833Z,32.30
2023-05-17T17:13:50.607Z,32.20
2023-05-17T17:16:20.608Z,32.20
2023-05-17T17:18:49.954Z,32.20
2023-05-17T17:21:19.401Z,32.20
2023-05-17T17:23:48.785Z,32.20
2023-05-17T17:26:19.033Z,32.00
2023-05-17T17:28:47.528Z,31.90
2023-05-17T17:31:16.557Z,31.80
2023-05-17T17:33:45.108Z,31.60
2023-05-17T17:36:13.704Z,31.50
2023-05-17T17:38:43.164Z,31.30
2023-05-17T17:41:11.815Z,31.00
2023-05-17T17:43:43.082Z,30.30
2023-05-17T17:46:11.702Z,29.70
2023-05-17T17:48:40.241Z,29.10
2023-05-17T17:51:08.803Z,28.50
2023-05-17T17:53:37.292Z,28.00
2023-05-17T17:56:07.149Z,27.50
2023-05-17T17:58:36.742Z,27.00
2023-05-17T18:01:07.062Z,26.50
2023-05-17T18:03:36.013Z,25.70
2023-05-17T18:06:05.222Z,25.00
2023-05-17T18:08:33.737Z,24.40
2023-05-17T18:11:02.396Z,23.90
2023-05-17T18:13:30.948Z,23.50
2023-05-17T18:15:59.915Z,23.00
2023-05-17T18:18:30.037Z,22.60
2023-05-17T18:20:58.786Z,22.10
2023-05-17T18:23:27.995Z,21.60
2023-05-17T18:25:57.022Z,21.30
2023-05-17T18:28:38.013Z,21.10
2023-05-17T18:31:10.768Z,21.00
2023-05-17T18:33:43.450Z,20.80
2023-05-17T18:36:12.591Z,20.50
2023-05-17T18:38:41.589Z,20.10
2023-05-17T18:41:11.592Z,19.60
2023-05-17T18:43:40.716Z,19.00
2023-05-17T18:46:09.736Z,18.40
2023-05-17T18:48:41.214Z,17.90
2023-05-17T18:51:11.136Z,17.30
2023-05-17T18:53:41.175Z,16.90
2023-05-17T18:56:11.240Z,16.50
2023-05-17T18:58:40.154Z,16.10
2023-05-17T19:01:09.385Z,15.70
2023-05-17T19:03:38.450Z,15.40
2023-05-17T19:06:11.146Z,15.10
2023-05-17T19:08:40.153Z,14.80
2023-05-17T19:11:09.060Z,14.50
2023-05-17T19:13:37.755Z,14.30
2023-05-17T19:16:06.555Z,14.00
2023-05-17T19:18:35.242Z,13.80
2023-05-17T19:21:04.052Z,13.60
2023-05-17T19:23:36.213Z,13.40
2023-05-17T19:26:04.917Z,13.20
2023-05-17T19:28:35.065Z,13.00
2023-05-17T19:31:04.133Z,12.80
2023-05-17T19:33:35.084Z,12.70
2023-05-17T19:36:03.805Z,12.50
2023-05-17T19:38:33.996Z,12.40
2023-05-17T19:41:03.014Z,12.20
2023-05-17T19:43:32.296Z,12.10
2023-05-17T19:46:01.827Z,11.90
2023-05-17T19:48:30.647Z,11.80
2023-05-17T19:50:59.378Z,11.70
2023-05-17T19:53:36.953Z,11.70
2023-05-17T19:56:14.172Z,11.60
2023-05-17T19:58:42.850Z,11.50
2023-05-17T20:01:11.477Z,11.40
2023-05-17T20:03:40.731Z,11.20
2023-05-17T20:06:14.358Z,11.20
2023-05-17T20:08:43.541Z,11.10
2023-05-17T20:11:14.098Z,10.90
2023-05-17T20:13:42.892Z,10.80
2023-05-17T20:16:13.548Z,10.70
2023-05-17T20:18:44.193Z,10.60
2023-05-17T20:21:15.386Z,10.50
2023-05-17T20:23:44.193Z,10.40
2023-05-17T20:26:17.034Z,10.30
2023-05-17T20:28:46.242Z,10.20
2023-05-17T20:31:14.901Z,10.00
2023-05-17T20:33:44.338Z,9.90
2023-05-17T20:36:14.582Z,9.80
2023-05-17T20:38:44.044Z,9.80
2023-05-17T20:41:16.047Z,9.70
2023-05-17T20:43:46.271Z,9.60
2023-05-17T20:46:16.564Z,9.50
2023-05-17T20:48:47.790Z,9.40
2023-05-17T20:51:17.726Z,9.40
2023-05-17T20:53:46.467Z,9.30
2023-05-17T20:56:19.250Z,9.20
2023-05-17T20:58:47.932Z,9.10
2023-05-17T21:01:16.316Z,9.10
2023-05-17T21:03:45.133Z,9.00
2023-05-17T21:06:13.994Z,8.90
2023-05-17T21:08:43.119Z,8.90
2023-05-17T21:11:15.250Z,8.80
2023-05-17T21:13:45.152Z,8.80
2023-05-17T21:16:14.289Z,8.70
2023-05-17T21:18:44.973Z,8.60
2023-05-17T21:21:13.950Z,8.60
2023-05-17T21:23:42.681Z,8.50
2023-05-17T21:26:11.233Z,8.50
2023-05-17T21:28:39.931Z,8.40
2023-05-17T21:31:09.959Z,8.40
2023-05-17T21:33:38.430Z,8.30
2023-05-17T21:36:07.326Z,8.30
2023-05-17T21:38:36.005Z,8.20
2023-05-17T21:41:04.589Z,8.20
2023-05-17T21:43:33.053Z,8.10
2023-05-17T21:46:01.621Z,8.10
2023-05-17T21:48:31.556Z,8.00
2023-05-17T21:51:00.285Z,8.00
2023-05-17T21:53:28.732Z,8.00
2023-05-17T21:56:02.526Z,8.00
2023-05-17T21:58:32.521Z,7.90
2023-05-17T22:01:01.368Z,7.90
2023-05-17T22:03:31.490Z,7.90
2023-05-17T22:06:00.197Z,7.90
2023-05-17T22:08:28.862Z,7.80
2023-05-17T22:10:57.654Z,7.80
2023-05-17T22:13:26.945Z,7.70
2023-05-17T22:15:57.676Z,7.60
2023-05-17T22:18:32.083Z,7.60
2023-05-17T22:21:02.595Z,7.60
2023-05-17T22:23:31.342Z,7.60
2023-05-17T22:26:00.801Z,7.50
2023-05-17T22:28:29.450Z,7.50
2023-05-17T22:30:58.315Z,7.50
2023-05-17T22:33:31.018Z,7.40
2023-05-17T22:36:02.529Z,7.40
2023-05-17T22:38:31.181Z,7.40
2023-05-17T22:40:59.804Z,7.40
2023-05-17T22:43:30.154Z,7.30
2023-05-17T22:46:00.113Z,7.30
2023-05-17T22:48:30.455Z,7.30
2023-05-17T22:51:03.353Z,7.20
2023-05-17T22:53:33.255Z,7.10
2023-05-17T22:56:02.066Z,7.10
2023-05-17T22:58:30.700Z,7.00
2023-05-17T23:00:59.304Z,7.00
2023-05-17T23:03:28.098Z,6.90
2023-05-17T23:06:02.680Z,6.80
2023-05-17T23:08:33.361Z,6.80
2023-05-17T23:11:01.910Z,6.70
2023-05-17T23:13:30.471Z,6.70
2023-05-17T23:15:59.076Z,6.60
2023-05-17T23:18:28.644Z,6.60
2023-05-17T23:20:59.167Z,6.60
2023-05-17T23:23:29.951Z,6.60
2023-05-17T23:25:59.820Z,6.50
2023-05-17T23:28:28.505Z,6.40
2023-05-17T23:31:02.131Z,6.30
2023-05-17T23:33:31.640Z,6.30
2023-05-17T23:36:00.303Z,6.30
2023-05-17T23:38:28.798Z,6.30
2023-05-17T23:40:58.303Z,6.30
2023-05-17T23:43:28.221Z,6.20
2023-05-17T23:45:57.566Z,6.20
2023-05-17T23:48:26.694Z,6.10
2023-05-17T23:50:55.191Z,6.00
2023-05-17T23:53:26.189Z,6.00
2023-05-17T23:55:54.724Z,5.90
2023-05-17T23:58:23.188Z,5.80
